Time;durP1;ratioP1;P1;durP2;ratioP2;P2;SDS_P1;SDS_P2;PMS_P1;PMS_P2;Temp;Humidity;BMP_temperature;BMP_pressure;BME280_temperature;BME280_humidity;BME280_pressure;Samples;Min_cycle;Max_cycle;Signal;HPM_P1;HPM_P2
2022/02/02 00:08:46;;;;;;;;;;;;;;;8.82;100.00;99545.59;4649947;30;19967;-75
2022/02/02 00:14:52;;;;;;;;;;;;;;;8.66;100.00;99538.88;4649906;30;19943;-75
2022/02/02 00:21:01;;;;;;;;;;;;;;;8.85;100.00;99542.03;4633238;30;19936;-75
2022/02/02 00:23:49;;;;;;;;;;;;;;;8.82;100.00;99553.97;4657089;30;20038;-75
2022/02/02 00:27:18;;;;;;;;;;;;;;;;;;;;;
2022/02/02 00:30:01;;;;;;;;;;;;;;;8.61;100.00;99548.41;4671920;30;20005;-75
2022/02/02 00:35:22;;;;;;;;;;;;;;;8.69;100.00;99583.41;4685058;30;19970;-75
2022/02/02 00:37:49;;;;;;;;;;;;;;;8.66;100.00;99566.72;4671126;30;20389;-75
2022/02/02 00:40:17;;;;;;;;;;;;;;;8.65;100.00;99576.25;4684926;30;20385;-75
2022/02/02 00:42:50;;;;;;;;;;;;;;;8.72;100.00;99598.56;4685433;30;19931;-75
2022/02/02 00:45:20;;;;;;;;;;;;;;;8.73;100.00;99577.84;4671229;30;19938;-75
2022/02/02 00:47:51;;;;;;;;;;;;;;;8.69;100.00;99594.56;4684989;30;19931;-75
2022/02/02 00:50:20;;;;;;;;;;;;;;;8.66;100.00;99587.00;4684853;30;20061;-75
2022/02/02 00:53:01;;;;;;;;;;;;;;;8.68;100.00;99587.41;4658681;30;19931;-75
2022/02/02 00:55:38;;;;;;;;;;;;;;;8.82;100.00;99595.75;4670925;30;19963;-75
2022/02/02 00:58:06;;;;;;;;;;;;;;;8.79;100.00;99599.34;4667477;30;19931;-75
2022/02/02 01:00:36;;;;;;;;;;;;;;;8.82;100.00;99598.56;4669176;30;20029;-75
2022/02/02 01:03:18;;;;;;;;;;;;;;;9.09;100.00;99601.69;4672419;30;19938;-75
2022/02/02 01:05:46;;;;;;;;;;;;;;;8.78;100.00;99600.53;4702095;30;20379;-80
2022/02/02 01:36:08;;;;;;;;;;;;;;;9.27;100.00;99627.56;4518275;31;19935;-76
2022/02/02 01:58:00;;;;;;;;;;;;;;;;;;;;;
2022/02/02 02:06:54;;;;;;;;;;;;;;;;;;;;;
2022/02/02 02:20:30;;;;;;;;;;;;;;;9.39;100.00;99765.81;4544860;31;20462;-75
2022/02/02 07:29:48;;;;;;;;;;;;;;;9.03;100.00;99943.38;4596418;31;19940;-76
2022/02/02 07:32:21;;;;;;;;;;;;;;;9.07;100.00;99949.78;4602949;31;19940;-76
2022/02/02 07:37:36;;;;;;;;;;;;;;;9.22;100.00;99972.94;4610403;31;19937;-77
2022/02/02 07:40:05;;;;;;;;;;;;;;;9.09;100.00;99958.53;4610994;31;19937;-76
2022/02/02 07:42:33;;;;;;;;;;;;;;;9.09;100.00;99969.69;4610627;31;19937;-76
2022/02/02 07:45:04;;;;;;;;;;;;;;;9.08;100.00;99954.97;4610340;31;19933;-76
2022/02/02 07:47:37;;;;;;;;;;;;;;;9.05;100.00;99947.41;4597020;31;19940;-76
2022/02/02 07:50:05;;;;;;;;;;;;;;;9.11;100.00;99956.97;4610241;31;19933;-75
2022/02/02 07:52:33;;;;;;;;;;;;;;;9.00;100.00;99944.97;4610039;31;19943;-76
2022/02/02 07:55:04;;;;;;;;;;;;;;;9.02;100.00;99955.75;4638255;30;19959;-76
2022/02/02 07:57:36;;;;;;;;;;;;;;;9.05;100.00;99958.56;4630698;30;19932;-76
2022/02/02 08:00:08;;;;;;;;;;;;;;;9.10;100.00;99960.94;4638818;30;20389;-75
2022/02/02 08:05:16;;;;;;;;;;;;;;;9.29;100.00;99962.59;4670214;30;20288;-75
2022/02/02 08:08:02;;;;;;;;;;;;;;;9.28;100.00;99979.72;4652334;30;19963;-75
2022/02/02 08:10:43;;;;;;;;;;;;;;;9.30;100.00;99980.94;4667416;30;19931;-75
2022/02/02 08:13:20;;;;;;;;;;;;;;;9.27;100.00;99975.34;4648606;30;20002;-76
2022/02/02 08:16:08;;;;;;;;;;;;;;;9.07;100.00;99967.28;4665147;30;20411;-75
2022/02/02 08:18:41;;;;;;;;;;;;;;;9.07;100.00;99972.88;4678255;30;19990;-75
2022/02/02 08:21:14;;;;;;;;;;;;;;;9.15;100.00;99996.00;4647237;30;20271;-75
2022/02/02 08:23:44;;;;;;;;;;;;;;;8.99;100.00;99976.84;4640512;30;20022;-75
2022/02/02 08:26:15;;;;;;;;;;;;;;;9.14;100.00;99989.66;4651107;30;20448;-75
2022/02/02 08:28:43;;;;;;;;;;;;;;;9.16;100.00;99992.81;4650970;30;19942;-75
2022/02/02 08:31:11;;;;;;;;;;;;;;;9.05;100.00;99997.56;4636302;30;19935;-75
2022/02/02 08:33:41;;;;;;;;;;;;;;;9.26;100.00;100016.38;4657966;30;20022;-75
2022/02/02 08:36:12;;;;;;;;;;;;;;;9.18;100.00;100011.19;4651630;30;19932;-75
2022/02/02 08:41:53;;;;;;;;;;;;;;;9.24;100.00;100004.03;4630496;31;20430;-75
2022/02/02 08:44:25;;;;;;;;;;;;;;;9.29;100.00;100012.00;4630366;30;20027;-74
2022/02/02 08:47:01;;;;;;;;;;;;;;;9.12;100.00;100013.53;4616513;31;19938;-74
2022/02/02 08:49:33;;;;;;;;;;;;;;;9.04;100.00;100009.91;4602631;31;20421;-75
2022/02/02 08:52:01;;;;;;;;;;;;;;;9.20;100.00;100009.59;4615894;31;20011;-76
2022/02/02 08:54:35;;;;;;;;;;;;;;;9.09;100.00;100014.31;4616516;31;19939;-75
2022/02/02 08:59:59;;;;;;;;;;;;;;;9.12;100.00;100003.19;4629687;31;20371;-76
2022/02/02 09:02:33;;;;;;;;;;;;;;;9.12;100.00;100019.91;4623636;31;20373;-80
2022/02/02 09:07:54;;;;;;;;;;;;;;;9.15;100.00;100024.69;4604103;31;19933;-78
2022/02/02 09:24:23;;;;;;;;;;;;;;;9.13;100.00;100032.66;4676198;30;19938;-78
2022/02/02 09:34:52;;;;;;;;;;;;;;;9.16;100.00;100015.13;4675634;30;20327;-75
2022/02/02 09:37:21;;;;;;;;;;;;;;;9.27;100.00;100015.19;4667643;30;19936;-76
2022/02/02 09:39:57;;;;;;;;;;;;;;;9.23;100.00;100002.41;4652799;30;19932;-76
2022/02/02 09:42:24;;;;;;;;;;;;;;;9.11;100.00;100011.94;4667578;30;20027;-76
2022/02/02 09:44:55;;;;;;;;;;;;;;;9.32;100.00;100019.59;4639215;30;19938;-76
2022/02/02 09:47:28;;;;;;;;;;;;;;;9.22;100.00;100023.94;4653555;30;19932;-76
2022/02/02 09:50:05;;;;;;;;;;;;;;;9.31;100.00;100021.59;4668505;30;20120;-75
2022/02/02 09:52:38;;;;;;;;;;;;;;;9.30;100.00;100019.19;4639524;30;19936;-75
2022/02/02 09:55:19;;;;;;;;;;;;;;;9.28;100.00;100016.81;4668933;30;20027;-76
2022/02/02 09:58:16;;;;;;;;;;;;;;;9.13;100.00;100021.50;4668657;30;20059;-76
2022/02/02 10:06:01;;;;;;;;;;;;;;;9.11;100.00;100037.03;4653399;30;20375;-75
2022/02/02 10:16:44;;;;;;;;;;;;;;;9.31;100.00;100043.09;4653077;30;19939;-76
2022/02/02 10:19:15;;;;;;;;;;;;;;;9.26;100.00;100029.50;4664318;30;19971;-75
2022/02/02 10:21:43;;;;;;;;;;;;;;;9.12;100.00;100024.69;4653276;30;19940;-76
2022/02/02 10:24:10;;;;;;;;;;;;;;;9.26;100.00;100041.47;4653059;30;19954;-76
2022/02/02 10:26:50;;;;;;;;;;;;;;;9.03;100.00;100005.53;4652876;30;20381;-76
2022/02/02 10:29:18;;;;;;;;;;;;;;;9.14;100.00;100020.31;4652171;30;19932;-76
2022/02/02 10:31:47;;;;;;;;;;;;;;;9.15;100.00;100030.28;4639059;30;19943;-76
2022/02/02 10:34:16;;;;;;;;;;;;;;;9.21;100.00;100021.53;4667273;30;19993;-76
2022/02/02 10:36:43;;;;;;;;;;;;;;;9.19;100.00;100016.38;4646727;30;19954;-76
2022/02/02 10:39:20;;;;;;;;;;;;;;;9.18;100.00;100004.41;4674831;30;19967;-75
2022/02/02 10:45:15;;;;;;;;;;;;;;;9.13;100.00;100015.91;4677641;30;19931;-76
2022/02/02 10:47:44;;;;;;;;;;;;;;;9.44;100.00;100033.19;4680571;30;19939;-76
2022/02/02 10:50:18;;;;;;;;;;;;;;;9.33;100.00;100035.16;4658800;30;19932;-76
2022/02/02 10:53:10;;;;;;;;;;;;;;;9.36;100.00;100039.94;4669075;30;20400;-76
2022/02/02 10:55:59;;;;;;;;;;;;;;;9.39;100.00;100028.00;4685172;30;19932;-77
2022/02/02 11:06:41;;;;;;;;;;;;;;;9.22;100.00;100023.13;4666168;30;19954;-77
2022/02/02 11:09:18;;;;;;;;;;;;;;;9.06;100.00;100010.31;4665460;30;19932;-77
2022/02/02 11:11:46;;;;;;;;;;;;;;;9.04;100.00;100009.91;4680345;30;19936;-77
2022/02/02 11:14:21;;;;;;;;;;;;;;;9.08;100.00;100005.16;4650273;30;20022;-76
2022/02/02 11:16:53;;;;;;;;;;;;;;;9.12;100.00;100010.72;4663695;30;20291;-76
2022/02/02 11:19:23;;;;;;;;;;;;;;;9.16;100.00;100009.56;4680116;30;19971;-86
2022/02/02 11:21:51;;;;;;;;;;;;;;;9.20;100.00;99998.44;4651866;30;19935;-80
2022/02/02 11:24:37;;;;;;;;;;;;;;;9.22;100.00;100004.44;4667157;30;19931;-78
2022/02/02 11:27:04;;;;;;;;;;;;;;;9.26;100.00;99987.69;4665793;30;19939;-76
2022/02/02 11:29:37;;;;;;;;;;;;;;;9.15;100.00;99985.66;4680759;30;20519;-77
2022/02/02 11:32:05;;;;;;;;;;;;;;;9.23;100.00;99991.25;4680983;30;19931;-78
2022/02/02 11:34:32;;;;;;;;;;;;;;;9.33;100.00;99968.97;4651211;30;20425;-78
2022/02/02 11:37:04;;;;;;;;;;;;;;;9.18;100.00;99981.28;4681367;30;19931;-77
2022/02/02 11:39:36;;;;;;;;;;;;;;;9.16;100.00;99992.81;4680717;30;19954;-77
2022/02/02 11:42:17;;;;;;;;;;;;;;;9.28;100.00;99982.53;4680403;30;20463;-77
2022/02/02 11:45:03;;;;;;;;;;;;;;;9.24;100.00;99990.88;4665342;30;19949;-76
2022/02/02 11:47:49;;;;;;;;;;;;;;;9.12;100.00;99978.09;4665220;30;19931;-76
2022/02/02 11:50:36;;;;;;;;;;;;;;;9.26;100.00;99977.34;4665925;30;20337;-76
2022/02/02 11:53:03;;;;;;;;;;;;;;;9.36;100.00;99990.50;4664799;30;20372;-76
2022/02/02 11:55:42;;;;;;;;;;;;;;;9.45;100.00;100001.31;4665593;30;19978;-76
2022/02/02 11:58:16;;;;;;;;;;;;;;;9.37;100.00;99985.75;4665677;30;19931;-81
2022/02/02 12:00:56;;;;;;;;;;;;;;;9.41;100.00;100003.28;4666859;30;20555;-83
2022/02/02 12:03:40;;;;;;;;;;;;;;;9.38;100.00;99992.91;4638526;30;20391;-79
2022/02/02 12:06:23;;;;;;;;;;;;;;;9.52;100.00;99999.34;4666003;30;20381;-82
2022/02/02 12:48:00;;;;;;;;;;;;;;;9.41;100.00;99895.31;4627688;31;20122;-82
2022/02/02 12:58:34;;;;;;;;;;;;;;;9.58;100.00;99921.63;4624990;31;19932;-93
2022/02/02 13:01:11;;;;;;;;;;;;;;;9.45;100.00;99909.25;4628647;31;20287;-80
2022/02/02 13:03:42;;;;;;;;;;;;;;;9.67;100.00;99905.28;4642495;30;20433;-79
2022/02/02 13:06:15;;;;;;;;;;;;;;;9.65;100.00;99888.16;4655947;30;19931;-79
2022/02/02 13:08:45;;;;;;;;;;;;;;;9.82;100.00;99906.91;4651182;30;19936;-81
2022/02/02 13:11:13;;;;;;;;;;;;;;;9.93;100.00;99914.09;4680313;30;20721;-78
2022/02/02 13:13:48;;;;;;;;;;;;;;;9.81;100.00;99908.91;4679301;30;19991;-78
2022/02/02 13:16:20;;;;;;;;;;;;;;;9.91;100.00;99893.34;4664856;30;19932;-77
2022/02/02 13:18:52;;;;;;;;;;;;;;;9.86;100.00;99902.13;4667723;30;19935;-77
2022/02/02 13:26:45;;;;;;;;;;;;;;;10.22;100.00;99917.69;4682813;30;20369;-76
2022/02/02 13:29:26;;;;;;;;;;;;;;;10.24;100.00;99912.50;4667946;30;19963;-76
2022/02/02 13:37:25;;;;;;;;;;;;;;;10.25;100.00;99900.13;4667911;30;19935;-75
2022/02/02 13:45:37;;;;;;;;;;;;;;;10.49;100.00;99905.69;4683503;30;20023;-75
2022/02/02 14:07:12;;;;;;;;;;;;;;;10.35;100.00;99907.69;4670598;30;20446;-76
2022/02/02 14:31:03;;;;;;;;;;;;;;;10.96;100.00;99879.16;4656305;30;19931;-77
2022/02/02 14:31:45;;;;;;;;;;;;;;;10.83;100.00;99861.22;4670422;30;20041;-78
2022/02/02 14:34:30;;;;;;;;;;;;;;;10.70;100.00;99860.91;4685542;30;20352;-78
2022/02/02 14:36:58;;;;;;;;;;;;;;;10.67;100.00;99853.31;4669923;30;19938;-78
2022/02/02 14:39:42;;;;;;;;;;;;;;;10.57;100.00;99865.31;4685356;30;20266;-79
2022/02/02 14:42:14;;;;;;;;;;;;;;;10.65;100.00;99849.31;4669866;30;19932;-78
2022/02/02 14:44:44;;;;;;;;;;;;;;;10.69;100.00;99855.72;4670025;30;19987;-78
2022/02/02 14:47:24;;;;;;;;;;;;;;;10.61;100.00;99842.97;4684038;30;19932;-78
2022/02/02 14:53:11;;;;;;;;;;;;;;;10.77;100.00;99848.88;4667033;30;19938;-78
2022/02/02 15:23:59;;;;;;;;;;;;;;;10.92;100.00;99798.06;4665347;30;20050;-77
2022/02/02 15:29:14;;;;;;;;;;;;;;;11.06;100.00;99777.63;4665216;30;19931;-77
2022/02/02 15:31:42;;;;;;;;;;;;;;;10.88;100.00;99762.97;4665103;30;19975;-77
2022/02/02 15:37:26;;;;;;;;;;;;;;;10.59;100.00;99736.38;4660828;30;20086;-78
2022/02/02 15:40:13;;;;;;;;;;;;;;;10.59;100.00;99733.56;4636800;30;20373;-77
2022/02/02 15:57:33;;;;;;;;;;;;;;;10.96;100.00;99686.22;4626138;30;19936;-79
2022/02/02 16:03:10;;;;;;;;;;;;;;;10.83;100.00;99701.88;4651808;30;19935;-79
2022/02/02 16:05:55;;;;;;;;;;;;;;;10.78;100.00;99702.31;4621110;30;19938;-79
2022/02/02 16:08:22;;;;;;;;;;;;;;;10.67;100.00;99690.41;4649651;30;19998;-79
2022/02/02 16:16:04;;;;;;;;;;;;;;;10.98;100.00;99678.19;4650318;30;19931;-79
2022/02/02 16:36:05;;;;;;;;;;;;;;;10.78;100.00;99618.47;4680987;30;19924;-79
2022/02/02 16:38:50;;;;;;;;;;;;;;;10.75;100.00;99602.53;4640750;30;19931;-78
2022/02/02 16:44:05;;;;;;;;;;;;;;;10.69;100.00;99579.00;4685731;30;20106;-79
2022/02/02 16:46:33;;;;;;;;;;;;;;;10.79;100.00;99572.53;4667398;30;20155;-78
2022/02/02 16:49:04;;;;;;;;;;;;;;;10.70;100.00;99572.22;4638557;30;19935;-78
2022/02/02 16:51:31;;;;;;;;;;;;;;;10.76;100.00;99559.38;4675380;30;19931;-78
2022/02/02 16:54:01;;;;;;;;;;;;;;;10.82;100.00;99554.94;4666811;30;19939;-78
2022/02/02 16:56:44;;;;;;;;;;;;;;;10.03;100.00;99538.34;4700122;30;19981;-76
2022/02/02 17:33:07;;;;;;;;;;;;;;;9.88;100.00;99532.06;4661587;30;19932;-78
2022/02/02 17:39:05;;;;;;;;;;;;;;;9.76;100.00;99531.72;4669660;30;20451;-78
2022/02/02 18:20:03;;;;;;;;;;;;;;;9.69;100.00;99470.41;4613183;31;20374;-75
2022/02/02 18:22:38;;;;;;;;;;;;;;;9.64;100.00;99470.81;4620501;31;20322;-76
2022/02/02 18:25:57;;;;;;;;;;;;;;;9.79;100.00;99483.47;4599729;31;19940;-75
2022/02/02 18:30:51;;;;;;;;;;;;;;;9.74;100.00;99469.97;4598684;31;19944;-75
2022/02/02 18:36:14;;;;;;;;;;;;;;;9.81;100.00;99464.34;4618471;30;19936;-75
2022/02/02 18:52:39;;;;;;;;;;;;;;;9.65;100.00;99445.28;4680322;30;20405;-76
2022/02/02 18:55:09;;;;;;;;;;;;;;;9.77;100.00;99463.56;4652598;30;20293;-76
2022/02/02 19:00:17;;;;;;;;;;;;;;;9.82;100.00;99458.34;4667918;30;20018;-76
2022/02/02 19:05:46;;;;;;;;;;;;;;;9.74;100.00;99450.44;4652493;30;20420;-77
2022/02/02 19:52:40;;;;;;;;;;;;;;;9.95;100.00;99458.66;4680386;30;19965;-78
2022/02/02 20:06:03;;;;;;;;;;;;;;;9.84;100.00;99474.69;4680853;30;20366;-78
2022/02/02 20:11:06;;;;;;;;;;;;;;;9.64;100.00;99468.81;4665161;30;19932;-78
2022/02/02 20:13:39;;;;;;;;;;;;;;;9.83;100.00;99473.09;4679922;30;20763;-78
2022/02/02 20:16:06;;;;;;;;;;;;;;;9.64;100.00;99460.47;4680247;30;20393;-78
2022/02/02 20:18:38;;;;;;;;;;;;;;;9.38;100.00;99457.41;4668045;30;20662;-78
2022/02/02 20:21:08;;;;;;;;;;;;;;;9.70;100.00;99471.97;4684244;30;20001;-78
2022/02/02 20:23:41;;;;;;;;;;;;;;;9.64;100.00;99477.19;4663622;30;19936;-77
2022/02/02 20:26:11;;;;;;;;;;;;;;;9.51;100.00;99453.75;4689172;30;19939;-77
2022/02/02 20:28:38;;;;;;;;;;;;;;;9.52;100.00;99452.56;4684445;30;19931;-77
2022/02/02 20:31:05;;;;;;;;;;;;;;;9.58;100.00;99450.13;4680774;30;19932;-77
2022/02/02 20:33:32;;;;;;;;;;;;;;;9.49;100.00;99458.16;4679777;30;19939;-77
2022/02/02 20:35:59;;;;;;;;;;;;;;;9.66;100.00;99457.25;4662258;30;19943;-76
2022/02/02 20:38:26;;;;;;;;;;;;;;;9.67;100.00;99459.63;4672661;30;19967;-77
2022/02/02 20:40:53;;;;;;;;;;;;;;;9.56;100.00;99463.72;4662976;30;19939;-76
2022/02/02 21:10:31;;;;;;;;;;;;;;;9.91;100.00;99435.53;4679517;30;19942;-77
2022/02/02 21:15:44;;;;;;;;;;;;;;;9.95;100.00;99414.00;4679603;30;20324;-77
2022/02/02 21:18:20;;;;;;;;;;;;;;;9.99;100.00;99409.19;4679511;30;20353;-77
2022/02/02 21:21:00;;;;;;;;;;;;;;;10.04;100.00;99406.72;4679591;30;20308;-77
2022/02/02 21:24:16;;;;;;;;;;;;;;;10.08;100.00;99406.72;4663784;30;19953;-77
2022/02/02 21:26:34;;;;;;;;;;;;;;;9.96;100.00;99407.19;4677514;30;19942;-77
2022/02/02 21:29:01;;;;;;;;;;;;;;;10.06;100.00;99397.94;4680298;30;20316;-77
2022/02/02 21:31:28;;;;;;;;;;;;;;;10.10;100.00;99387.59;4650054;30;19939;-77
2022/02/02 21:33:55;;;;;;;;;;;;;;;9.84;100.00;99382.59;4679356;30;19932;-77
2022/02/02 21:36:23;;;;;;;;;;;;;;;10.07;100.00;99377.25;4664543;30;19997;-77
2022/02/02 21:39:03;;;;;;;;;;;;;;;10.25;100.00;99378.63;4666798;30;20078;-77
2022/02/02 21:41:34;;;;;;;;;;;;;;;10.18;100.00;99366.75;4682785;30;19931;-77
2022/02/02 21:44:06;;;;;;;;;;;;;;;9.86;100.00;99352.28;4667278;30;19931;-77
2022/02/02 21:46:33;;;;;;;;;;;;;;;10.02;100.00;99346.94;4683076;30;19935;-77
2022/02/02 21:49:01;;;;;;;;;;;;;;;9.93;100.00;99350.22;4653402;30;20034;-77
2022/02/02 21:51:41;;;;;;;;;;;;;;;9.64;100.00;99336.91;4666887;30;19936;-77
2022/02/02 21:54:08;;;;;;;;;;;;;;;9.78;100.00;99336.78;4667120;30;19971;-77
2022/02/02 21:56:35;;;;;;;;;;;;;;;9.89;100.00;99343.06;4667144;30;19982;-77
2022/02/02 21:59:05;;;;;;;;;;;;;;;9.89;100.00;99334.72;4683782;30;19953;-77
2022/02/02 22:01:32;;;;;;;;;;;;;;;10.00;100.00;99322.22;4681685;30;19931;-78
2022/02/02 22:03:59;;;;;;;;;;;;;;;9.90;100.00;99320.34;4685946;30;19990;-76
2022/02/02 22:06:26;;;;;;;;;;;;;;;9.84;100.00;99312.81;4685499;30;19931;-77
2022/02/02 22:08:54;;;;;;;;;;;;;;;9.92;100.00;99300.38;4668417;30;19931;-77
2022/02/02 22:11:24;;;;;;;;;;;;;;;10.04;100.00;99288.69;4685814;30;20013;-82
2022/02/02 22:14:01;;;;;;;;;;;;;;;10.25;100.00;99294.09;4669291;30;19931;-83
2022/02/02 22:16:28;;;;;;;;;;;;;;;10.00;100.00;99282.34;4652345;30;19954;-85
2022/02/02 22:18:57;;;;;;;;;;;;;;;9.95;100.00;99268.84;4652108;30;19932;-78
2022/02/02 22:21:27;;;;;;;;;;;;;;;10.14;100.00;99265.47;4638698;30;19932;-76
2022/02/02 22:23:54;;;;;;;;;;;;;;;10.01;100.00;99278.34;4668436;30;19932;-76
2022/02/02 22:26:21;;;;;;;;;;;;;;;9.97;100.00;99275.59;4668439;30;19983;-76
2022/02/02 22:28:48;;;;;;;;;;;;;;;9.69;100.00;99253.56;4668072;30;20030;-77
2022/02/02 22:31:15;;;;;;;;;;;;;;;9.78;100.00;99264.22;4668032;30;20026;-78
2022/02/02 22:33:42;;;;;;;;;;;;;;;9.82;100.00;99253.81;4669350;30;19932;-77
2022/02/02 22:36:12;;;;;;;;;;;;;;;9.74;100.00;99257.91;4665858;30;19938;-77
2022/02/02 22:38:41;;;;;;;;;;;;;;;9.76;100.00;99249.88;4668223;30;19936;-77
2022/02/02 22:41:12;;;;;;;;;;;;;;;9.80;100.00;99257.03;4667234;30;19936;-77
2022/02/02 22:43:48;;;;;;;;;;;;;;;9.77;100.00;99240.34;4668774;30;20038;-77
2022/02/02 22:46:18;;;;;;;;;;;;;;;9.74;100.00;99258.69;4685136;30;19931;-76
2022/02/02 22:48:45;;;;;;;;;;;;;;;9.74;100.00;99263.47;4684665;30;19931;-79
2022/02/02 22:51:13;;;;;;;;;;;;;;;9.80;100.00;99262.59;4641570;30;19938;-77
2022/02/02 22:53:40;;;;;;;;;;;;;;;9.63;100.00;99266.38;4671960;30;19998;-77
2022/02/02 22:56:07;;;;;;;;;;;;;;;9.31;100.00;99274.22;4652816;30;19935;-77
2022/02/02 22:58:34;;;;;;;;;;;;;;;9.49;100.00;99274.06;4652624;30;19939;-77
2022/02/02 23:01:01;;;;;;;;;;;;;;;9.48;100.00;99289.22;4652667;30;20279;-77
2022/02/02 23:03:30;;;;;;;;;;;;;;;9.52;100.00;99281.59;4657179;30;19990;-77
2022/02/02 23:06:00;;;;;;;;;;;;;;;9.62;100.00;99289.09;4668257;30;19932;-77
2022/02/02 23:08:29;;;;;;;;;;;;;;;9.61;100.00;99291.09;4654780;30;19932;-77
2022/02/02 23:10:57;;;;;;;;;;;;;;;9.91;100.00;99276.44;4684912;30;19932;-77
2022/02/02 23:13:24;;;;;;;;;;;;;;;9.75;100.00;99267.84;4669286;30;19937;-77
2022/02/02 23:18:22;;;;;;;;;;;;;;;9.44;100.00;99272.50;4684338;30;19935;-77
2022/02/02 23:20:53;;;;;;;;;;;;;;;9.74;100.00;99261.47;4684837;30;20004;-77
2022/02/02 23:23:22;;;;;;;;;;;;;;;9.49;100.00;99248.94;4684706;30;20392;-77
2022/02/02 23:25:49;;;;;;;;;;;;;;;9.60;100.00;99246.88;4669320;30;19936;-77
2022/02/02 23:28:21;;;;;;;;;;;;;;;9.52;100.00;99223.03;4684526;30;19935;-77
2022/02/02 23:30:48;;;;;;;;;;;;;;;9.73;100.00;99231.19;4655359;30;19932;-77
2022/02/02 23:33:15;;;;;;;;;;;;;;;9.74;100.00;99204.88;4684177;30;19931;-77
2022/02/02 23:35:43;;;;;;;;;;;;;;;9.78;100.00;99211.22;4684387;30;19939;-77
2022/02/02 23:38:14;;;;;;;;;;;;;;;9.95;100.00;99201.88;4668899;30;20029;-77
2022/02/02 23:43:16;;;;;;;;;;;;;;;9.82;100.00;99193.22;4684500;30;19938;-77
2022/02/02 23:45:52;;;;;;;;;;;;;;;9.76;100.00;99206.03;4684133;30;20400;-77
2022/02/02 23:48:21;;;;;;;;;;;;;;;9.72;100.00;99210.88;4668724;30;20294;-77
2022/02/02 23:50:52;;;;;;;;;;;;;;;9.64;100.00;99208.56;4684123;30;19943;-77
2022/02/02 23:53:24;;;;;;;;;;;;;;;9.82;100.00;99211.94;4668656;30;19931;-77
2022/02/02 23:56:00;;;;;;;;;;;;;;;9.86;100.00;99212.72;4668320;30;19932;-77
2022/02/02 23:58:35;;;;;;;;;;;;;;;9.75;100.00;99198.09;4643500;30;19932;-77
